createdAt,value
2023-03-03T00:01:05.619Z,3.55
2023-03-03T00:03:36.160Z,3.66
2023-03-03T00:06:05.374Z,3.68
2023-03-03T00:08:33.405Z,3.46
2023-03-03T00:11:03.388Z,3.28
2023-03-03T00:13:32.526Z,3.34
2023-03-03T00:16:11.879Z,3.40
2023-03-03T00:18:44.568Z,3.62
2023-03-03T00:21:43.072Z,3.68
2023-03-03T00:24:21.436Z,3.63
2023-03-03T00:26:52.090Z,3.46
2023-03-03T00:29:29.046Z,3.51
2023-03-03T00:32:07.111Z,3.63
2023-03-03T00:34:37.068Z,3.81
2023-03-03T00:37:29.407Z,3.88
2023-03-03T00:40:14.923Z,4.00
2023-03-03T00:42:49.109Z,4.00
2023-03-03T00:45:34.713Z,4.06
2023-03-03T00:48:19.581Z,4.10
2023-03-03T00:50:47.806Z,4.17
2023-03-03T00:53:18.407Z,4.19
2023-03-03T00:55:49.307Z,4.20
2023-03-03T00:58:22.048Z,4.32
2023-03-03T01:00:52.693Z,4.32
2023-03-03T01:03:25.993Z,4.36
2023-03-03T01:05:55.511Z,4.25
2023-03-03T01:08:23.629Z,4.23
2023-03-03T01:10:57.632Z,4.06
2023-03-03T01:13:31.805Z,3.91
2023-03-03T01:16:01.268Z,3.87
2023-03-03T01:18:30.128Z,3.84
2023-03-03T01:20:58.058Z,3.91
2023-03-03T01:23:26.221Z,3.73
2023-03-03T01:25:54.457Z,3.70
2023-03-03T01:28:22.281Z,3.72
2023-03-03T01:30:51.131Z,3.60
2023-03-03T01:33:19.426Z,3.83
2023-03-03T01:35:48.611Z,3.80
2023-03-03T01:38:16.756Z,3.81
2023-03-03T01:40:53.482Z,3.97
2023-03-03T01:43:21.874Z,3.94
2023-03-03T01:45:49.762Z,4.07
2023-03-03T01:48:20.319Z,4.06
2023-03-03T01:50:52.676Z,3.98
2023-03-03T01:53:35.448Z,4.04
2023-03-03T01:56:07.965Z,4.16
2023-03-03T01:58:40.450Z,4.18
2023-03-03T02:01:13.850Z,4.21
2023-03-03T02:03:43.757Z,4.11
2023-03-03T02:06:18.210Z,4.15
2023-03-03T02:09:06.917Z,4.20
2023-03-03T02:11:37.978Z,4.09
2023-03-03T02:14:05.823Z,4.11
2023-03-03T02:16:34.153Z,4.16
2023-03-03T02:19:02.383Z,4.20
2023-03-03T02:21:30.199Z,4.24
2023-03-03T02:24:06.927Z,4.18
2023-03-03T02:26:40.475Z,4.17
2023-03-03T02:29:10.628Z,4.04
2023-03-03T02:31:40.328Z,4.10
2023-03-03T02:34:08.477Z,4.08
2023-03-03T02:36:38.298Z,3.95
2023-03-03T02:39:12.052Z,3.88
2023-03-03T02:42:02.363Z,3.74
2023-03-03T02:44:37.331Z,3.72
2023-03-03T02:47:05.529Z,3.58
2023-03-03T02:49:35.701Z,3.41
2023-03-03T02:52:07.638Z,3.43
2023-03-03T02:57:34.569Z,3.41
2023-03-03T03:00:02.757Z,3.30
2023-03-03T03:02:31.514Z,3.45
2023-03-03T03:04:59.528Z,3.52
2023-03-03T03:07:27.310Z,3.50
2023-03-03T03:09:56.091Z,3.57
2023-03-03T03:12:23.920Z,3.70
2023-03-03T03:14:55.048Z,3.67
2023-03-03T03:17:23.096Z,3.70
2023-03-03T03:19:53.226Z,3.87
2023-03-03T03:22:21.363Z,3.88
2023-03-03T03:24:49.853Z,3.98
2023-03-03T03:27:17.692Z,3.99
2023-03-03T03:29:47.229Z,4.03
2023-03-03T03:32:15.665Z,4.03
2023-03-03T03:34:43.566Z,4.07
2023-03-03T03:37:12.976Z,4.05
2023-03-03T03:39:43.071Z,4.09
2023-03-03T03:42:11.809Z,4.17
2023-03-03T03:44:39.988Z,3.97
2023-03-03T03:47:08.287Z,3.91
2023-03-03T03:49:37.114Z,3.74
2023-03-03T03:52:05.151Z,3.75
2023-03-03T03:54:35.023Z,3.61
2023-03-03T03:57:02.949Z,3.61
2023-03-03T03:59:31.428Z,3.66
2023-03-03T04:01:59.936Z,3.68
2023-03-03T04:04:28.074Z,3.67
2023-03-03T04:06:56.593Z,3.67
2023-03-03T04:09:24.707Z,3.65
2023-03-03T04:11:52.639Z,3.59
2023-03-03T04:14:21.098Z,3.61
2023-03-03T04:16:49.473Z,3.52
2023-03-03T04:19:18.404Z,3.42
2023-03-03T04:21:46.424Z,3.45
2023-03-03T04:24:14.659Z,3.47
2023-03-03T04:26:42.781Z,3.57
2023-03-03T04:29:13.642Z,3.61
2023-03-03T04:31:44.074Z,3.63
2023-03-03T04:34:13.239Z,3.66
2023-03-03T04:36:41.892Z,3.70
2023-03-03T04:39:10.010Z,3.71
2023-03-03T04:41:39.377Z,3.57
2023-03-03T04:44:07.335Z,3.68
2023-03-03T04:46:35.530Z,3.74
2023-03-03T04:49:06.113Z,3.71
2023-03-03T04:51:36.634Z,3.61
2023-03-03T04:54:05.251Z,3.66
2023-03-03T04:56:33.334Z,3.65
2023-03-03T04:59:01.287Z,3.63
2023-03-03T05:01:29.404Z,3.66
2023-03-03T05:03:57.516Z,3.63
2023-03-03T05:06:25.603Z,3.66
2023-03-03T05:08:53.605Z,3.47
2023-03-03T05:11:21.507Z,3.60
2023-03-03T05:13:49.783Z,3.67
2023-03-03T05:16:17.664Z,3.79
2023-03-03T05:18:45.987Z,3.76
2023-03-03T05:21:14.022Z,3.53
2023-03-03T05:23:41.880Z,3.50
2023-03-03T05:26:09.966Z,3.41
2023-03-03T05:28:37.695Z,3.42
2023-03-03T05:31:05.822Z,3.37
2023-03-03T05:33:33.979Z,3.53
2023-03-03T05:36:02.196Z,3.48
2023-03-03T05:38:30.013Z,3.45
2023-03-03T05:40:58.099Z,3.39
2023-03-03T05:43:26.454Z,3.43
2023-03-03T05:45:58.745Z,3.48
2023-03-03T05:48:27.402Z,3.32
2023-03-03T05:50:58.662Z,3.39
2023-03-03T05:53:28.201Z,3.44
2023-03-03T05:55:56.340Z,3.41
2023-03-03T05:58:24.471Z,3.37
2023-03-03T06:00:52.362Z,3.53
2023-03-03T06:03:20.292Z,3.71
2023-03-03T06:05:48.292Z,3.65
2023-03-03T06:08:16.650Z,3.78
2023-03-03T06:10:44.556Z,3.75
2023-03-03T06:13:15.057Z,3.78
2023-03-03T06:15:43.085Z,3.84
2023-03-03T06:18:11.123Z,4.08
2023-03-03T06:20:39.267Z,4.28
2023-03-03T06:23:07.226Z,4.33
2023-03-03T06:25:35.966Z,4.46
2023-03-03T06:28:04.173Z,4.42
2023-03-03T06:30:33.873Z,4.36
2023-03-03T06:33:02.000Z,4.36
2023-03-03T06:35:30.050Z,4.40
2023-03-03T06:37:58.040Z,4.28
2023-03-03T06:40:26.004Z,4.43
2023-03-03T06:42:54.035Z,4.46
2023-03-03T06:45:22.725Z,4.54
2023-03-03T06:47:50.588Z,4.58
2023-03-03T06:50:21.580Z,4.62
2023-03-03T06:52:50.356Z,4.65
2023-03-03T06:55:23.853Z,4.61
2023-03-03T06:57:52.016Z,4.73
2023-03-03T07:00:25.261Z,4.78
2023-03-03T07:03:17.832Z,4.80
2023-03-03T07:05:46.265Z,4.69
2023-03-03T07:08:19.532Z,4.79
2023-03-03T07:10:48.841Z,4.79
2023-03-03T07:13:18.515Z,5.03
2023-03-03T07:15:47.747Z,4.87
2023-03-03T07:18:34.055Z,4.53
2023-03-03T07:21:15.103Z,4.74
2023-03-03T07:23:44.498Z,5.12
2023-03-03T07:26:16.536Z,5.51
2023-03-03T07:28:48.133Z,5.80
2023-03-03T07:31:43.999Z,5.44
2023-03-03T07:34:27.560Z,5.75
2023-03-03T07:36:59.967Z,5.68
2023-03-03T07:39:40.587Z,5.64
2023-03-03T07:42:35.256Z,5.51
2023-03-03T07:45:32.698Z,5.39
2023-03-03T07:48:30.833Z,5.42
2023-03-03T07:51:05.426Z,5.44
2023-03-03T07:53:36.725Z,5.43
2023-03-03T07:56:28.569Z,5.34
2023-03-03T07:58:57.521Z,5.40
2023-03-03T08:01:31.862Z,5.62
2023-03-03T08:04:00.775Z,5.53
2023-03-03T08:06:37.916Z,5.74
2023-03-03T08:09:12.430Z,5.91
2023-03-03T08:11:52.547Z,6.00
2023-03-03T08:14:27.874Z,5.92
2023-03-03T08:17:00.421Z,5.96
2023-03-03T08:19:32.415Z,6.00
2023-03-03T08:22:14.309Z,6.03
2023-03-03T08:24:42.547Z,6.16
2023-03-03T08:27:12.819Z,6.27
2023-03-03T08:29:41.302Z,6.23
2023-03-03T08:32:09.969Z,6.13
2023-03-03T08:34:38.315Z,6.19
2023-03-03T08:37:06.867Z,6.05
2023-03-03T08:39:35.976Z,5.99
2023-03-03T08:42:04.494Z,5.93
2023-03-03T08:44:32.744Z,5.92
2023-03-03T08:47:01.635Z,5.86
2023-03-03T08:49:30.478Z,5.82
2023-03-03T08:52:01.150Z,5.93
2023-03-03T08:54:29.698Z,6.03
2023-03-03T08:56:58.169Z,6.11
2023-03-03T08:59:26.496Z,6.32
2023-03-03T09:01:55.549Z,6.25
2023-03-03T09:04:23.818Z,6.40
2023-03-03T09:06:51.866Z,6.57
2023-03-03T09:09:20.551Z,6.50
2023-03-03T09:11:48.982Z,6.60
2023-03-03T09:14:19.413Z,6.64
2023-03-03T09:16:52.513Z,6.64
2023-03-03T09:19:34.393Z,6.64
2023-03-03T09:22:20.013Z,6.57
2023-03-03T09:24:49.694Z,6.72
2023-03-03T09:27:43.835Z,6.71
2023-03-03T09:30:37.625Z,6.66
2023-03-03T09:33:26.257Z,6.80
2023-03-03T09:36:18.765Z,6.68
2023-03-03T09:38:48.263Z,6.77
2023-03-03T09:41:44.828Z,6.74
2023-03-03T09:44:40.557Z,6.67
2023-03-03T09:47:43.180Z,6.50
2023-03-03T09:50:40.765Z,6.58
2023-03-03T09:53:53.411Z,6.70
2023-03-03T09:56:30.662Z,6.74
2023-03-03T09:59:13.730Z,6.77
2023-03-03T10:01:56.622Z,6.79
2023-03-03T10:05:01.234Z,6.91
2023-03-03T10:08:18.334Z,6.75
2023-03-03T10:10:57.845Z,6.56
2023-03-03T10:13:38.135Z,6.52
2023-03-03T10:16:27.284Z,6.64
2023-03-03T10:19:07.810Z,6.74
2023-03-03T10:21:43.137Z,6.60
2023-03-03T10:24:27.227Z,6.64
2023-03-03T10:27:56.343Z,6.56
2023-03-03T10:30:42.446Z,6.29
2023-03-03T10:33:42.051Z,6.09
2023-03-03T10:36:54.907Z,5.89
2023-03-03T10:39:57.552Z,5.97
2023-03-03T10:42:55.401Z,6.35
2023-03-03T10:45:29.326Z,5.85
2023-03-03T10:48:15.661Z,5.86
2023-03-03T10:50:59.055Z,6.09
2023-03-03T10:53:51.992Z,6.06
2023-03-03T10:56:53.663Z,6.00
2023-03-03T10:59:49.251Z,5.98
2023-03-03T11:02:46.145Z,5.67
2023-03-03T11:05:41.366Z,5.89
2023-03-03T11:08:36.789Z,5.92
2023-03-03T11:11:18.806Z,5.73
2023-03-03T11:14:05.520Z,5.53
2023-03-03T11:16:52.693Z,5.73
2023-03-03T11:19:37.089Z,6.07
2023-03-03T11:22:21.714Z,6.02
2023-03-03T11:25:27.192Z,6.40
2023-03-03T11:28:09.474Z,6.37
2023-03-03T11:31:13.445Z,6.40
2023-03-03T11:34:28.851Z,6.41
2023-03-03T11:37:16.163Z,6.28
2023-03-03T11:39:45.469Z,6.18
2023-03-03T11:42:23.754Z,6.03
2023-03-03T11:45:11.809Z,6.54
2023-03-03T11:48:10.545Z,6.75
2023-03-03T11:50:44.179Z,6.86
2023-03-03T11:53:58.256Z,6.97
2023-03-03T11:56:42.476Z,7.04
2023-03-03T12:00:40.858Z,7.03
2023-03-03T12:03:21.867Z,6.93
2023-03-03T12:06:07.132Z,6.84
2023-03-03T12:08:58.763Z,6.81
2023-03-03T12:11:42.436Z,7.08
2023-03-03T12:14:44.107Z,7.19
2023-03-03T12:17:24.379Z,7.33
2023-03-03T12:20:04.436Z,7.32
2023-03-03T12:22:35.037Z,7.20
2023-03-03T12:25:22.254Z,7.26
2023-03-03T12:28:22.966Z,7.14
2023-03-03T12:31:12.271Z,7.08
2023-03-03T12:34:00.645Z,7.10
2023-03-03T12:36:45.491Z,7.20
2023-03-03T12:39:54.999Z,7.19
2023-03-03T12:42:23.818Z,7.21
2023-03-03T12:45:17.958Z,7.22
2023-03-03T12:47:55.836Z,7.12
2023-03-03T12:50:36.392Z,7.08
2023-03-03T12:53:15.505Z,7.09
2023-03-03T12:56:05.033Z,7.11
2023-03-03T12:58:36.040Z,7.07
2023-03-03T13:01:29.016Z,6.93
2023-03-03T13:04:12.955Z,6.92
2023-03-03T13:06:44.520Z,6.94
2023-03-03T13:09:36.103Z,6.79
2023-03-03T13:12:37.605Z,6.85
2023-03-03T13:15:18.005Z,6.92
2023-03-03T13:18:23.512Z,6.84
2023-03-03T13:20:59.511Z,6.86
2023-03-03T13:23:42.449Z,6.88
2023-03-03T13:26:34.632Z,7.03
2023-03-03T13:29:26.282Z,7.03
2023-03-03T13:32:04.074Z,7.22
2023-03-03T13:34:50.283Z,7.10
2023-03-03T13:37:28.484Z,7.10
2023-03-03T13:40:01.967Z,7.21
2023-03-03T13:42:46.874Z,7.15
2023-03-03T13:45:27.678Z,7.12
2023-03-03T13:48:23.069Z,7.07
2023-03-03T13:50:57.594Z,6.99
2023-03-03T13:53:36.205Z,7.15
2023-03-03T13:56:20.474Z,7.16
2023-03-03T13:58:51.484Z,7.19
2023-03-03T14:01:26.522Z,7.36
2023-03-03T14:04:00.142Z,7.39
2023-03-03T14:06:30.521Z,7.32
2023-03-03T14:09:26.767Z,7.15
2023-03-03T14:12:14.581Z,7.13
2023-03-03T14:15:06.012Z,7.08
2023-03-03T14:18:06.854Z,7.10
2023-03-03T14:20:40.152Z,7.19
2023-03-03T14:23:19.432Z,7.22
2023-03-03T14:25:55.135Z,7.30
2023-03-03T14:28:26.542Z,7.36
2023-03-03T14:30:58.046Z,7.20
2023-03-03T14:33:31.882Z,7.27
2023-03-03T14:36:02.702Z,7.27
2023-03-03T14:38:33.800Z,7.09
2023-03-03T14:41:13.869Z,7.12
2023-03-03T14:44:05.071Z,7.08
2023-03-03T14:46:36.827Z,7.08
2023-03-03T14:49:14.904Z,7.01
2023-03-03T14:51:48.934Z,7.06
2023-03-03T14:54:25.385Z,7.04
2023-03-03T14:57:01.147Z,6.90
2023-03-03T14:59:30.961Z,7.02
2023-03-03T15:02:35.538Z,7.07
2023-03-03T15:05:22.050Z,7.06
2023-03-03T15:08:05.763Z,7.08
2023-03-03T15:10:45.653Z,7.14
2023-03-03T15:13:20.004Z,7.21
2023-03-03T15:16:00.457Z,7.16
2023-03-03T15:18:32.851Z,7.12
2023-03-03T15:21:04.522Z,7.15
2023-03-03T15:23:44.742Z,7.11
2023-03-03T15:26:23.059Z,7.12
2023-03-03T15:29:28.798Z,7.10
2023-03-03T15:32:30.890Z,7.02
2023-03-03T15:35:28.231Z,7.05
2023-03-03T15:38:02.492Z,6.98
2023-03-03T15:40:40.965Z,7.01
2023-03-03T15:43:27.376Z,6.99
2023-03-03T15:46:18.597Z,6.99
2023-03-03T15:49:12.091Z,6.91
2023-03-03T15:52:07.204Z,6.95
2023-03-03T15:55:01.221Z,6.83
2023-03-03T15:58:05.369Z,6.83
2023-03-03T16:01:16.467Z,6.69
2023-03-03T16:03:51.067Z,6.72
2023-03-03T16:06:32.366Z,6.77
2023-03-03T16:09:06.517Z,6.79
2023-03-03T16:11:55.802Z,6.70
2023-03-03T16:14:55.250Z,6.73
2023-03-03T16:17:49.089Z,6.71
2023-03-03T16:20:36.846Z,6.65
2023-03-03T16:23:23.397Z,6.57
2023-03-03T16:26:17.959Z,6.30
2023-03-03T16:29:00.932Z,6.31
2023-03-03T16:31:38.010Z,6.24
2023-03-03T16:34:36.716Z,6.23
2023-03-03T16:37:13.532Z,6.08
2023-03-03T16:40:05.036Z,6.06
2023-03-03T16:45:34.404Z,5.81
2023-03-03T16:48:33.547Z,5.78
2023-03-03T16:51:35.469Z,5.85
2023-03-03T16:57:25.551Z,6.01
2023-03-03T17:00:10.748Z,5.92
2023-03-03T17:02:59.143Z,5.88
2023-03-03T17:05:44.835Z,5.86
2023-03-03T17:08:24.898Z,5.87
2023-03-03T17:11:12.496Z,5.82
2023-03-03T17:14:12.836Z,5.84
2023-03-03T17:17:17.294Z,5.89
2023-03-03T17:20:22.340Z,5.97
2023-03-03T17:23:28.209Z,6.03
2023-03-03T17:26:46.289Z,5.97
2023-03-03T17:29:48.449Z,6.06
2023-03-03T17:32:42.646Z,6.10
2023-03-03T17:35:22.353Z,6.18
2023-03-03T17:38:30.407Z,6.20
2023-03-03T17:41:17.455Z,6.17
2023-03-03T17:44:07.287Z,6.14
2023-03-03T17:47:07.641Z,6.12
2023-03-03T17:50:24.494Z,6.02
2023-03-03T17:53:26.888Z,6.06
2023-03-03T17:56:11.381Z,6.11
2023-03-03T17:59:18.245Z,6.11
2023-03-03T18:02:21.945Z,5.98
2023-03-03T18:05:11.502Z,5.90
2023-03-03T18:08:24.450Z,5.98
2023-03-03T18:11:07.993Z,5.90
2023-03-03T18:14:07.642Z,5.77
2023-03-03T18:16:48.153Z,5.74
2023-03-03T18:19:26.297Z,5.85
2023-03-03T18:22:34.493Z,5.70
2023-03-03T18:25:10.170Z,5.92
2023-03-03T18:27:46.625Z,5.97
2023-03-03T18:30:17.847Z,5.92
2023-03-03T18:32:58.285Z,5.90
2023-03-03T18:35:49.643Z,5.97
2023-03-03T18:38:18.356Z,5.99
2023-03-03T18:41:22.274Z,6.00
2023-03-03T18:43:54.600Z,5.99
2023-03-03T18:46:23.113Z,5.96
2023-03-03T18:48:54.439Z,5.95
2023-03-03T18:51:35.212Z,5.50
2023-03-03T18:54:12.774Z,5.16
2023-03-03T18:56:48.166Z,5.19
2023-03-03T18:59:31.270Z,5.22
2023-03-03T19:02:30.148Z,5.09
2023-03-03T19:05:29.099Z,4.70
2023-03-03T19:08:02.033Z,4.66
2023-03-03T19:10:52.643Z,4.76
2023-03-03T19:13:32.831Z,4.78
2023-03-03T19:16:12.421Z,4.63
2023-03-03T19:18:43.608Z,4.66
2023-03-03T19:21:12.194Z,4.63
2023-03-03T19:23:51.485Z,4.50
2023-03-03T19:26:30.673Z,4.53
2023-03-03T19:29:22.927Z,4.45
2023-03-03T19:32:10.160Z,4.48
2023-03-03T19:34:55.289Z,4.37
2023-03-03T19:38:11.382Z,4.03
2023-03-03T19:41:00.288Z,4.15
2023-03-03T19:43:43.655Z,4.26
2023-03-03T19:46:52.647Z,4.04
2023-03-03T19:49:32.440Z,4.17
2023-03-03T19:52:29.055Z,4.21
2023-03-03T19:55:18.861Z,4.27
2023-03-03T19:58:09.564Z,4.11
2023-03-03T20:00:48.574Z,4.31
2023-03-03T20:04:00.365Z,4.43
2023-03-03T20:07:10.758Z,4.52
2023-03-03T20:10:00.344Z,4.44
2023-03-03T20:12:48.230Z,4.11
2023-03-03T20:15:20.342Z,4.05
2023-03-03T20:17:55.183Z,4.02
2023-03-03T20:20:49.800Z,4.08
2023-03-03T20:23:33.302Z,3.80
2023-03-03T20:26:36.831Z,3.63
2023-03-03T20:29:28.152Z,3.81
2023-03-03T20:32:19.753Z,3.73
2023-03-03T20:35:16.343Z,3.65
2023-03-03T20:37:50.859Z,3.48
2023-03-03T20:40:22.197Z,3.47
2023-03-03T20:43:29.507Z,3.40
2023-03-03T20:46:13.014Z,3.73
2023-03-03T20:49:02.503Z,3.67
2023-03-03T20:51:43.141Z,3.64
2023-03-03T20:54:33.908Z,3.56
2023-03-03T20:57:13.809Z,3.75
2023-03-03T21:00:20.309Z,3.74
2023-03-03T21:03:06.831Z,3.90
2023-03-03T21:05:35.305Z,3.93
2023-03-03T21:08:08.407Z,3.99
2023-03-03T21:10:39.427Z,3.93
2023-03-03T21:13:52.511Z,3.85
2023-03-03T21:16:23.400Z,3.81
2023-03-03T21:19:00.141Z,3.93
2023-03-03T21:21:31.659Z,3.87
2023-03-03T21:24:01.249Z,4.02
2023-03-03T21:26:53.579Z,4.13
2023-03-03T21:29:23.664Z,4.16
2023-03-03T21:31:58.677Z,4.28
2023-03-03T21:34:33.813Z,4.30
2023-03-03T21:37:06.365Z,4.42
2023-03-03T21:39:39.788Z,4.39
2023-03-03T21:42:11.422Z,4.56
2023-03-03T21:44:46.857Z,4.54
2023-03-03T21:47:15.556Z,4.53
2023-03-03T21:49:45.223Z,4.53
2023-03-03T21:52:16.786Z,4.47
2023-03-03T21:54:47.379Z,4.52
2023-03-03T21:57:15.994Z,4.63
2023-03-03T21:59:44.347Z,4.79
2023-03-03T22:02:12.488Z,4.85
2023-03-03T22:04:41.275Z,4.76
2023-03-03T22:07:10.113Z,4.89
2023-03-03T22:09:38.402Z,4.84
2023-03-03T22:12:07.363Z,4.79
2023-03-03T22:14:35.717Z,4.77
2023-03-03T22:17:04.092Z,4.77
2023-03-03T22:19:34.494Z,4.60
2023-03-03T22:22:03.183Z,4.43
2023-03-03T22:24:31.944Z,4.48
2023-03-03T22:27:00.176Z,4.66
2023-03-03T22:29:28.513Z,4.73
2023-03-03T22:31:56.700Z,4.59
2023-03-03T22:34:24.842Z,4.76
2023-03-03T22:36:52.886Z,4.65
2023-03-03T22:39:20.916Z,4.48
2023-03-03T22:41:48.977Z,4.57
2023-03-03T22:44:17.011Z,4.62
2023-03-03T22:46:44.971Z,4.80
2023-03-03T22:49:12.885Z,4.87
2023-03-03T22:51:40.887Z,4.88
2023-03-03T22:54:08.928Z,5.02
2023-03-03T22:56:36.841Z,4.98
2023-03-03T22:59:04.989Z,5.04
2023-03-03T23:01:32.908Z,5.03
2023-03-03T23:04:00.985Z,4.76
2023-03-03T23:06:28.910Z,4.78
2023-03-03T23:08:56.847Z,4.75
2023-03-03T23:11:24.950Z,4.76
2023-03-03T23:13:52.951Z,4.76
2023-03-03T23:16:21.153Z,4.60
2023-03-03T23:18:49.224Z,4.53
2023-03-03T23:21:17.841Z,4.52
2023-03-03T23:23:45.791Z,4.63
2023-03-03T23:26:13.674Z,4.65
2023-03-03T23:28:41.673Z,4.56
2023-03-03T23:31:09.726Z,4.59
2023-03-03T23:33:37.620Z,4.66
2023-03-03T23:36:05.825Z,4.83
2023-03-03T23:38:33.805Z,4.90
2023-03-03T23:41:01.656Z,4.98
2023-03-03T23:43:29.608Z,4.98
2023-03-03T23:45:57.680Z,5.01
2023-03-03T23:48:25.901Z,5.08
2023-03-03T23:50:53.963Z,5.10
2023-03-03T23:53:21.958Z,5.09
2023-03-03T23:55:49.868Z,5.11
2023-03-03T23:58:20.490Z,5.14
